Terminal Aerodrome Forecast
Issued by NWS

Current Version | Previous Version | Graphics & Text | Print | Product List | Glossary On
Versions: 1 2 3 4 5 6 7 8 9 10 11 12 13 14 15 16
000
FTUS41 KILN 061123 AAA
TAFLUK
TAF AMD
KLUK 061123Z 0611/0712 VRB02KT 2SM BR SCT250
      TEMPO 0612/0614 1/2SM FZFG
     FM061400 23007KT P6SM SCT070
     FM062300 19003KT P6SM SCT060=

USA.gov is the U.S. government's official web portal to all federal, state and local government web resources and services.